createdAt,value
2022-07-29T00:00:34.048Z,58.42
2022-07-29T00:01:34.027Z,60.84
2022-07-29T00:02:34.084Z,61.55
2022-07-29T00:03:34.114Z,60.46
2022-07-29T00:04:34.047Z,58.45
2022-07-29T00:05:34.002Z,60.13
2022-07-29T00:06:33.994Z,59.96
2022-07-29T00:07:33.981Z,58.34
2022-07-29T00:08:34.041Z,56.32
2022-07-29T00:09:33.971Z,58.01
2022-07-29T00:10:34.972Z,57.41
2022-07-29T00:11:33.961Z,56.68
2022-07-29T00:12:33.942Z,56.15
2022-07-29T00:13:33.929Z,54.83
2022-07-29T00:14:34.002Z,54.13
2022-07-29T00:15:33.921Z,54.53
2022-07-29T00:16:33.996Z,54.61
2022-07-29T00:17:33.904Z,54.00
2022-07-29T00:18:33.898Z,54.21
2022-07-29T00:19:33.933Z,56.92
2022-07-29T00:20:33.903Z,56.32
2022-07-29T00:21:33.874Z,59.64
2022-07-29T00:22:33.863Z,59.17
2022-07-29T00:23:36.793Z,58.80
2022-07-29T00:24:34.878Z,58.32
2022-07-29T00:25:33.926Z,58.52
2022-07-29T00:26:33.867Z,58.82
2022-07-29T00:27:33.835Z,59.42
2022-07-29T00:28:33.844Z,59.22
2022-07-29T00:29:34.905Z,57.91
2022-07-29T00:30:34.804Z,56.20
2022-07-29T00:31:33.924Z,61.75
2022-07-29T00:32:33.798Z,62.08
2022-07-29T00:33:33.785Z,61.07
2022-07-29T00:34:33.771Z,60.06
2022-07-29T00:35:33.810Z,60.09
2022-07-29T00:36:33.793Z,59.28
2022-07-29T00:37:33.758Z,61.20
2022-07-29T00:38:33.739Z,61.00
2022-07-29T00:39:33.742Z,57.74
2022-07-29T00:40:33.733Z,59.86
2022-07-29T00:41:33.716Z,61.07
2022-07-29T00:42:33.742Z,62.48
2022-07-29T00:43:33.721Z,60.87
2022-07-29T00:44:33.703Z,61.57
2022-07-29T00:45:33.704Z,60.89
2022-07-29T00:46:33.747Z,60.69
2022-07-29T00:47:33.732Z,61.00
2022-07-29T00:48:33.676Z,61.20
2022-07-29T00:49:33.677Z,61.10
2022-07-29T00:50:33.675Z,60.82
2022-07-29T00:51:33.658Z,61.51
2022-07-29T00:52:33.662Z,59.89
2022-07-29T00:53:33.642Z,60.60
2022-07-29T00:54:33.624Z,60.89
2022-07-29T00:55:33.627Z,60.29
2022-07-29T00:56:33.617Z,60.60
2022-07-29T00:57:33.636Z,61.80
2022-07-29T00:58:33.603Z,60.80
2022-07-29T00:59:34.680Z,62.71
2022-07-29T01:00:33.665Z,63.32
2022-07-29T01:01:33.599Z,62.74
2022-07-29T01:02:33.655Z,60.52
2022-07-29T01:03:33.603Z,58.37
2022-07-29T01:04:33.575Z,59.89
2022-07-29T01:05:50.244Z,61.20
2022-07-29T01:06:34.545Z,61.98
2022-07-29T01:07:33.587Z,60.89
2022-07-29T01:08:33.555Z,58.45
2022-07-29T01:09:42.005Z,57.74
2022-07-29T01:10:34.527Z,56.50
2022-07-29T01:11:33.512Z,61.24
2022-07-29T01:12:33.536Z,58.04
2022-07-29T01:13:33.498Z,60.24
2022-07-29T01:14:33.482Z,60.36
2022-07-29T01:15:33.476Z,60.87
2022-07-29T01:16:33.504Z,60.39
2022-07-29T01:17:33.456Z,62.41
2022-07-29T01:18:34.101Z,63.78
2022-07-29T01:19:33.450Z,63.78
2022-07-29T01:20:33.459Z,63.08
2022-07-29T01:21:33.443Z,61.76
2022-07-29T01:22:33.431Z,63.58
2022-07-29T01:23:33.433Z,64.39
2022-07-29T01:24:33.402Z,62.37
2022-07-29T01:25:33.407Z,63.81
2022-07-29T01:26:33.398Z,63.61
2022-07-29T01:27:33.384Z,62.27
2022-07-29T01:28:33.413Z,63.08
2022-07-29T01:29:37.833Z,63.18
2022-07-29T01:30:33.357Z,61.25
2022-07-29T01:31:33.421Z,60.32
2022-07-29T01:32:33.495Z,61.23
2022-07-29T01:33:33.360Z,61.91
2022-07-29T01:34:33.346Z,62.71
2022-07-29T01:35:33.325Z,61.80
2022-07-29T01:36:33.320Z,60.89
2022-07-29T01:37:33.321Z,59.69
2022-07-29T01:38:33.351Z,59.48
2022-07-29T01:39:33.510Z,58.27
2022-07-29T01:40:33.294Z,58.17
2022-07-29T01:41:33.302Z,57.43
2022-07-29T01:42:33.276Z,57.41
2022-07-29T01:43:33.333Z,55.99
2022-07-29T01:44:33.269Z,56.30
2022-07-29T01:45:33.251Z,59.22
2022-07-29T01:46:33.280Z,59.42
2022-07-29T01:47:33.245Z,59.22
2022-07-29T01:48:33.243Z,60.44
2022-07-29T01:49:33.264Z,62.51
2022-07-29T01:50:33.235Z,64.16
2022-07-29T01:51:33.221Z,62.87
2022-07-29T01:52:33.213Z,63.38
2022-07-29T01:53:37.627Z,62.87
2022-07-29T01:54:33.250Z,63.51
2022-07-29T01:55:33.186Z,63.92
2022-07-29T01:56:33.178Z,62.73
2022-07-29T01:57:33.172Z,61.99
2022-07-29T01:58:33.167Z,64.93
2022-07-29T01:59:33.198Z,61.08
2022-07-29T02:00:33.155Z,62.77
2022-07-29T02:01:33.168Z,63.28
2022-07-29T02:02:33.169Z,63.48
2022-07-29T02:03:33.136Z,64.29
2022-07-29T02:04:33.151Z,63.28
2022-07-29T02:05:33.125Z,65.61
2022-07-29T02:06:33.105Z,64.62
2022-07-29T02:07:33.103Z,63.10
2022-07-29T02:08:33.106Z,62.53
2022-07-29T02:09:33.118Z,63.21
2022-07-29T02:10:33.117Z,61.76
2022-07-29T02:11:33.075Z,63.45
2022-07-29T02:12:33.122Z,62.04
2022-07-29T02:13:33.267Z,61.13
2022-07-29T02:14:33.102Z,61.94
2022-07-29T02:15:33.041Z,61.83
2022-07-29T02:16:33.080Z,63.15
2022-07-29T02:17:33.042Z,62.98
2022-07-29T02:18:33.025Z,63.21
2022-07-29T02:19:33.031Z,62.90
2022-07-29T02:20:33.048Z,65.03
2022-07-29T02:21:33.007Z,61.59
2022-07-29T02:22:33.004Z,60.98
2022-07-29T02:23:32.990Z,61.25
2022-07-29T02:24:33.980Z,62.77
2022-07-29T02:25:37.248Z,63.78
2022-07-29T02:26:32.971Z,63.18
2022-07-29T02:27:32.980Z,61.87
2022-07-29T02:28:32.956Z,60.96
2022-07-29T02:29:32.969Z,61.87
2022-07-29T02:30:32.962Z,61.96
2022-07-29T02:31:32.969Z,63.08
2022-07-29T02:32:32.929Z,63.78
2022-07-29T02:33:33.044Z,63.21
2022-07-29T02:34:32.911Z,63.71
2022-07-29T02:35:34.653Z,64.42
2022-07-29T02:36:32.896Z,66.61
2022-07-29T02:37:32.903Z,64.72
2022-07-29T02:38:32.878Z,64.92
2022-07-29T02:39:32.900Z,64.72
2022-07-29T02:40:32.894Z,66.61
2022-07-29T02:41:33.874Z,64.69
2022-07-29T02:42:32.865Z,65.39
2022-07-29T02:43:32.847Z,64.69
2022-07-29T02:44:34.908Z,65.80
2022-07-29T02:45:33.867Z,66.50
2022-07-29T02:46:32.883Z,66.61
2022-07-29T02:47:41.273Z,64.72
2022-07-29T02:48:33.832Z,66.00
2022-07-29T02:49:32.825Z,66.38
2022-07-29T02:50:32.830Z,66.78
2022-07-29T02:51:44.179Z,66.78
2022-07-29T02:52:33.797Z,65.09
2022-07-29T02:53:32.777Z,66.58
2022-07-29T02:54:32.791Z,64.99
2022-07-29T02:55:32.798Z,67.01
2022-07-29T02:56:32.800Z,64.99
2022-07-29T02:57:32.753Z,66.84
2022-07-29T02:58:32.755Z,66.50
2022-07-29T02:59:32.753Z,65.19
2022-07-29T03:00:32.753Z,64.79
2022-07-29T03:01:32.764Z,65.06
2022-07-29T03:02:32.713Z,63.44
2022-07-29T03:03:32.710Z,61.59
2022-07-29T03:04:32.754Z,64.52
2022-07-29T03:05:32.702Z,63.68
2022-07-29T03:06:38.331Z,62.87
2022-07-29T03:07:33.704Z,64.46
2022-07-29T03:08:32.673Z,63.76
2022-07-29T03:09:32.679Z,61.94
2022-07-29T03:10:32.671Z,61.83
2022-07-29T03:11:49.160Z,63.35
2022-07-29T03:12:33.683Z,62.67
2022-07-29T03:13:32.626Z,62.85
2022-07-29T03:14:32.646Z,60.80
2022-07-29T03:15:32.653Z,60.29
2022-07-29T03:16:32.718Z,59.35
2022-07-29T03:17:32.633Z,59.56
2022-07-29T03:18:32.608Z,59.35
2022-07-29T03:19:32.602Z,60.13
2022-07-29T03:20:32.621Z,60.87
2022-07-29T03:21:32.622Z,60.66
2022-07-29T03:22:32.573Z,58.62
2022-07-29T03:23:35.409Z,58.62
2022-07-29T03:24:32.592Z,58.82
2022-07-29T03:25:32.577Z,57.91
2022-07-29T03:26:32.575Z,57.71
2022-07-29T03:27:32.548Z,57.61
2022-07-29T03:28:32.528Z,57.68
2022-07-29T03:29:33.213Z,58.32
2022-07-29T03:30:32.537Z,58.01
2022-07-29T03:31:33.725Z,57.81
2022-07-29T03:32:32.488Z,58.32
2022-07-29T03:33:32.491Z,58.32
2022-07-29T03:34:32.491Z,58.09
2022-07-29T03:35:32.504Z,61.04
2022-07-29T03:36:32.502Z,60.64
2022-07-29T03:37:32.474Z,61.14
2022-07-29T03:38:32.471Z,61.55
2022-07-29T03:39:32.454Z,61.68
2022-07-29T03:40:32.473Z,61.98
2022-07-29T03:41:32.466Z,64.78
2022-07-29T03:42:34.341Z,63.19
2022-07-29T03:43:33.425Z,63.12
2022-07-29T03:44:32.428Z,63.93
2022-07-29T03:45:32.439Z,62.92
2022-07-29T03:46:32.482Z,62.74
2022-07-29T03:47:49.820Z,62.44
2022-07-29T03:48:33.383Z,62.95
2022-07-29T03:49:32.387Z,64.26
2022-07-29T03:50:32.392Z,64.97
2022-07-29T03:51:33.947Z,64.06
2022-07-29T03:52:32.366Z,64.87
2022-07-29T03:53:32.350Z,63.08
2022-07-29T03:54:32.370Z,65.00
2022-07-29T03:55:32.362Z,64.29
2022-07-29T03:56:32.358Z,61.76
2022-07-29T03:57:32.325Z,62.77
2022-07-29T03:58:32.319Z,63.58
2022-07-29T03:59:32.336Z,62.98
2022-07-29T04:00:32.332Z,63.58
2022-07-29T04:01:32.352Z,64.49
2022-07-29T04:02:32.374Z,64.79
2022-07-29T04:03:32.335Z,65.87
2022-07-29T04:04:32.320Z,66.58
2022-07-29T04:05:32.297Z,68.13
2022-07-29T04:06:32.278Z,68.43
2022-07-29T04:07:32.292Z,67.82
2022-07-29T04:08:32.252Z,68.87
2022-07-29T04:09:32.266Z,68.56
2022-07-29T04:10:34.040Z,67.32
2022-07-29T04:11:32.250Z,66.00
2022-07-29T04:12:32.214Z,68.84
2022-07-29T04:13:32.210Z,69.74
2022-07-29T04:14:32.220Z,70.32
2022-07-29T04:15:32.215Z,68.23
2022-07-29T04:16:32.240Z,67.82
2022-07-29T04:17:32.188Z,66.58
2022-07-29T04:18:32.221Z,64.76
2022-07-29T04:19:32.191Z,63.24
2022-07-29T04:20:32.167Z,64.52
2022-07-29T04:21:32.189Z,63.89
2022-07-29T04:22:32.146Z,61.96
2022-07-29T04:23:32.145Z,62.64
2022-07-29T04:24:32.146Z,62.04
2022-07-29T04:25:32.139Z,61.20
2022-07-29T04:26:32.220Z,63.82
2022-07-29T04:27:32.127Z,65.54
2022-07-29T04:28:32.109Z,66.55
2022-07-29T04:29:32.115Z,64.97
2022-07-29T04:30:32.103Z,65.70
2022-07-29T04:31:32.174Z,64.39
2022-07-29T04:32:32.074Z,65.50
2022-07-29T04:33:32.060Z,67.63
2022-07-29T04:34:32.099Z,65.30
2022-07-29T04:35:38.421Z,65.40
2022-07-29T04:36:33.157Z,63.45
2022-07-29T04:37:32.055Z,63.35
2022-07-29T04:38:32.040Z,62.51
2022-07-29T04:39:32.043Z,61.60
2022-07-29T04:40:32.026Z,60.66
2022-07-29T04:41:33.194Z,60.53
2022-07-29T04:42:32.050Z,59.53
2022-07-29T04:43:34.123Z,59.33
2022-07-29T04:44:33.999Z,59.53
2022-07-29T04:45:32.984Z,59.80
2022-07-29T04:46:32.074Z,58.49
2022-07-29T04:47:31.972Z,58.39
2022-07-29T04:48:31.965Z,58.67
2022-07-29T04:49:32.083Z,58.26
2022-07-29T04:50:31.950Z,57.68
2022-07-29T04:51:32.012Z,58.76
2022-07-29T04:52:31.939Z,57.76
2022-07-29T04:53:31.945Z,58.26
2022-07-29T04:54:31.933Z,57.05
2022-07-29T04:55:31.921Z,57.05
2022-07-29T04:56:31.990Z,57.05
2022-07-29T04:57:31.916Z,58.03
2022-07-29T04:58:31.894Z,57.25
2022-07-29T04:59:31.895Z,56.15
2022-07-29T05:00:33.213Z,56.24
2022-07-29T05:01:31.912Z,56.12
2022-07-29T05:02:31.980Z,57.43
2022-07-29T05:03:31.870Z,57.25
2022-07-29T05:04:31.845Z,57.63
2022-07-29T05:05:31.852Z,57.65
2022-07-29T05:06:31.867Z,57.73
2022-07-29T05:07:31.872Z,57.25
2022-07-29T05:08:31.823Z,57.63
2022-07-29T05:09:31.820Z,57.32
2022-07-29T05:10:31.809Z,57.23
2022-07-29T05:11:31.804Z,56.12
2022-07-29T05:12:31.816Z,57.53
2022-07-29T05:13:46.321Z,56.52
2022-07-29T05:14:32.805Z,56.32
2022-07-29T05:15:31.805Z,57.23
2022-07-29T05:16:31.803Z,56.92
2022-07-29T05:17:31.787Z,56.90
2022-07-29T05:18:31.757Z,56.09
2022-07-29T05:19:31.754Z,57.83
2022-07-29T05:20:31.731Z,57.63
2022-07-29T05:21:31.727Z,56.29
2022-07-29T05:22:31.762Z,56.92
2022-07-29T05:23:31.712Z,57.30
2022-07-29T05:24:31.696Z,57.30
2022-07-29T05:25:43.031Z,57.00
2022-07-29T05:26:32.692Z,57.50
2022-07-29T05:27:31.731Z,56.09
2022-07-29T05:28:31.672Z,56.20
2022-07-29T05:29:44.069Z,57.60
2022-07-29T05:30:32.690Z,55.79
2022-07-29T05:31:31.814Z,56.80
2022-07-29T05:32:32.365Z,56.60
2022-07-29T05:33:35.633Z,56.49
2022-07-29T05:34:31.754Z,55.99
2022-07-29T05:35:31.626Z,57.10
2022-07-29T05:36:31.615Z,56.49
2022-07-29T05:37:31.611Z,55.99
2022-07-29T05:38:31.641Z,57.12
2022-07-29T05:39:48.263Z,56.60
2022-07-29T05:40:32.584Z,61.46
2022-07-29T05:41:32.298Z,63.10
2022-07-29T05:42:31.571Z,64.17
2022-07-29T05:43:31.587Z,62.85
2022-07-29T05:44:31.565Z,65.28
2022-07-29T05:45:32.600Z,63.36
2022-07-29T05:46:31.613Z,64.61
2022-07-29T05:47:31.538Z,66.86
2022-07-29T05:48:31.556Z,60.87
2022-07-29T05:49:31.585Z,62.76
2022-07-29T05:50:31.513Z,60.46
2022-07-29T05:51:31.509Z,59.42
2022-07-29T05:52:31.532Z,58.59
2022-07-29T05:53:31.511Z,61.52
2022-07-29T05:54:31.484Z,60.51
2022-07-29T05:55:31.479Z,60.68
2022-07-29T05:56:31.969Z,60.58
2022-07-29T05:57:31.471Z,59.88
2022-07-29T05:58:31.507Z,59.04
2022-07-29T05:59:31.470Z,59.55
2022-07-29T06:00:31.438Z,59.95
2022-07-29T06:01:31.463Z,60.75
2022-07-29T06:02:31.443Z,63.90
2022-07-29T06:03:31.744Z,61.92
2022-07-29T06:04:31.450Z,62.65
2022-07-29T06:05:31.507Z,67.40
2022-07-29T06:06:31.391Z,68.01
2022-07-29T06:07:31.395Z,73.28
2022-07-29T06:08:31.375Z,69.35
2022-07-29T06:09:31.397Z,65.92
2022-07-29T06:10:31.361Z,66.49
2022-07-29T06:11:31.358Z,66.69
2022-07-29T06:12:31.355Z,68.51
2022-07-29T06:13:31.354Z,67.50
2022-07-29T06:14:31.380Z,72.04
2022-07-29T06:15:31.351Z,75.91
2022-07-29T06:16:31.370Z,79.17
2022-07-29T06:17:31.328Z,82.24
2022-07-29T06:18:31.293Z,80.46
2022-07-29T06:19:31.749Z,75.41
2022-07-29T06:20:31.822Z,73.46
2022-07-29T06:21:31.274Z,76.79
2022-07-29T06:22:31.268Z,74.77
2022-07-29T06:23:31.255Z,76.08
2022-07-29T06:24:31.297Z,76.28
2022-07-29T06:25:31.255Z,78.00
2022-07-29T06:26:34.195Z,81.27
2022-07-29T06:27:32.248Z,82.32
2022-07-29T06:28:31.218Z,84.08
2022-07-29T06:29:31.258Z,86.96
2022-07-29T06:30:31.268Z,85.44
2022-07-29T06:31:31.205Z,88.92
2022-07-29T06:32:31.182Z,89.83
2022-07-29T06:33:31.180Z,87.54
2022-07-29T06:34:31.182Z,88.15
2022-07-29T06:35:39.412Z,86.22
2022-07-29T06:36:33.171Z,88.76
2022-07-29T06:37:31.177Z,88.76
2022-07-29T06:38:34.344Z,87.95
2022-07-29T06:39:33.222Z,90.12
2022-07-29T06:40:31.150Z,90.53
2022-07-29T06:41:31.125Z,90.83
2022-07-29T06:42:31.114Z,90.77
2022-07-29T06:43:31.117Z,91.89
2022-07-29T06:44:31.098Z,92.49
2022-07-29T06:45:31.189Z,92.33
2022-07-29T06:46:31.138Z,93.19
2022-07-29T06:47:31.096Z,94.82
2022-07-29T06:48:31.075Z,95.68
2022-07-29T06:49:31.144Z,95.73
2022-07-29T06:50:31.113Z,94.82
2022-07-29T06:51:31.055Z,93.49
2022-07-29T06:52:31.036Z,94.46
2022-07-29T06:53:31.040Z,93.96
2022-07-29T06:54:31.049Z,93.70
2022-07-29T06:55:31.021Z,95.12
2022-07-29T06:56:31.074Z,94.92
2022-07-29T06:57:31.024Z,95.32
2022-07-29T06:58:31.001Z,96.95
2022-07-29T06:59:35.427Z,95.32
2022-07-29T07:00:32.003Z,95.73
2022-07-29T07:01:31.085Z,94.98
2022-07-29T07:02:31.036Z,95.18
2022-07-29T07:03:30.961Z,93.91
2022-07-29T07:04:30.957Z,93.45
2022-07-29T07:05:30.945Z,93.61
2022-07-29T07:06:30.980Z,93.10
2022-07-29T07:07:31.944Z,94.02
2022-07-29T07:08:30.946Z,93.61
2022-07-29T07:09:39.884Z,93.67
2022-07-29T07:10:31.931Z,91.28
2022-07-29T07:11:30.943Z,92.09
2022-07-29T07:12:30.900Z,93.35
2022-07-29T07:13:30.908Z,93.05
2022-07-29T07:14:30.907Z,93.41
2022-07-29T07:15:39.126Z,94.02
2022-07-29T07:16:32.019Z,93.30
2022-07-29T07:17:30.881Z,93.21
2022-07-29T07:18:30.862Z,93.06
2022-07-29T07:19:30.856Z,93.16
2022-07-29T07:20:30.842Z,93.87
2022-07-29T07:21:31.236Z,92.76
2022-07-29T07:22:33.425Z,89.87
2022-07-29T07:23:30.835Z,89.21
2022-07-29T07:24:30.837Z,89.31
2022-07-29T07:25:30.814Z,89.31
2022-07-29T07:26:30.917Z,90.53
2022-07-29T07:27:30.803Z,89.21
2022-07-29T07:28:30.779Z,90.73
2022-07-29T07:29:30.783Z,91.90
2022-07-29T07:30:30.771Z,92.41
2022-07-29T07:31:30.823Z,90.42
2022-07-29T07:32:30.777Z,93.30
2022-07-29T07:33:30.762Z,93.51
2022-07-29T07:34:30.775Z,92.84
2022-07-29T07:35:30.747Z,91.48
2022-07-29T07:36:30.847Z,91.44
2022-07-29T07:37:30.758Z,89.41
2022-07-29T07:38:30.750Z,90.28
2022-07-29T07:39:30.774Z,90.95
2022-07-29T07:40:30.722Z,90.76
2022-07-29T07:41:32.457Z,89.75
2022-07-29T07:42:30.737Z,86.37
2022-07-29T07:43:30.687Z,86.67
2022-07-29T07:44:30.683Z,85.05
2022-07-29T07:45:30.714Z,85.56
2022-07-29T07:46:30.667Z,86.53
2022-07-29T07:47:30.704Z,87.70
2022-07-29T07:48:30.655Z,85.99
2022-07-29T07:49:30.798Z,84.06
2022-07-29T07:50:30.707Z,84.71
2022-07-29T07:51:30.634Z,86.93
2022-07-29T07:52:30.622Z,86.02
2022-07-29T07:53:30.667Z,88.35
2022-07-29T07:54:30.654Z,86.79
2022-07-29T07:55:53.384Z,83.90
2022-07-29T07:56:35.285Z,84.57
2022-07-29T07:57:30.583Z,84.03
2022-07-29T07:58:30.701Z,81.52
2022-07-29T07:59:30.578Z,83.95
2022-07-29T08:00:30.566Z,82.29
2022-07-29T08:01:30.578Z,83.06
2022-07-29T08:02:31.589Z,80.10
2022-07-29T08:03:30.642Z,78.65
2022-07-29T08:04:30.659Z,77.97
2022-07-29T08:05:30.529Z,75.72
2022-07-29T08:06:30.545Z,74.15
2022-07-29T08:07:30.521Z,74.81
2022-07-29T08:08:30.540Z,72.56
2022-07-29T08:09:30.853Z,70.83
2022-07-29T08:10:30.500Z,68.22
2022-07-29T08:11:30.492Z,69.92
2022-07-29T08:12:30.487Z,71.39
2022-07-29T08:13:30.519Z,68.99
2022-07-29T08:14:30.496Z,70.29
2022-07-29T08:15:30.455Z,65.01
2022-07-29T08:16:30.498Z,67.38
2022-07-29T08:17:30.442Z,65.97
2022-07-29T08:18:30.487Z,67.75
2022-07-29T08:19:30.429Z,66.14
2022-07-29T08:20:30.425Z,67.35
2022-07-29T08:21:30.420Z,70.29
2022-07-29T08:22:30.402Z,71.59
2022-07-29T08:23:45.440Z,67.42
2022-07-29T08:24:32.487Z,67.29
2022-07-29T08:25:30.370Z,69.62
2022-07-29T08:26:30.397Z,67.59
2022-07-29T08:27:44.984Z,65.59
2022-07-29T08:28:32.363Z,65.52
2022-07-29T08:29:30.411Z,65.78
2022-07-29T08:30:30.355Z,65.95
2022-07-29T08:31:30.386Z,63.85
2022-07-29T08:32:52.713Z,63.89
2022-07-29T08:33:32.320Z,66.95
2022-07-29T08:34:30.372Z,66.02
2022-07-29T08:35:35.029Z,67.29
2022-07-29T08:36:32.311Z,64.25
2022-07-29T08:37:30.314Z,66.63
2022-07-29T08:38:30.291Z,66.69
2022-07-29T08:39:30.285Z,64.79
2022-07-29T08:40:30.749Z,63.96
2022-07-29T08:41:30.304Z,63.17
2022-07-29T08:42:30.274Z,62.37
2022-07-29T08:43:30.268Z,62.83
2022-07-29T08:44:31.120Z,62.13
2022-07-29T08:45:30.288Z,60.80
2022-07-29T08:46:30.281Z,63.30
2022-07-29T08:47:30.241Z,61.77
2022-07-29T08:48:30.228Z,61.44
2022-07-29T08:49:30.238Z,61.27
2022-07-29T08:50:30.227Z,62.77
2022-07-29T08:51:30.263Z,59.58
2022-07-29T08:52:30.191Z,61.30
2022-07-29T08:53:30.179Z,60.11
2022-07-29T08:54:30.207Z,61.41
2022-07-29T08:55:30.209Z,61.36
2022-07-29T08:56:30.178Z,61.87
2022-07-29T08:57:30.168Z,61.80
2022-07-29T08:58:30.160Z,62.04
2022-07-29T08:59:31.286Z,62.13
2022-07-29T09:00:30.158Z,62.29
2022-07-29T09:01:36.224Z,62.09
2022-07-29T09:02:30.123Z,62.06
2022-07-29T09:03:30.198Z,62.93
2022-07-29T09:04:30.117Z,62.76
2022-07-29T09:05:30.147Z,62.83
2022-07-29T09:06:30.106Z,63.93
2022-07-29T09:07:34.650Z,61.10
2022-07-29T09:08:30.108Z,59.94
2022-07-29T09:09:30.070Z,61.07
2022-07-29T09:10:30.130Z,62.59
2022-07-29T09:11:30.082Z,62.62
2022-07-29T09:12:32.744Z,62.22
2022-07-29T09:13:31.052Z,62.49
2022-07-29T09:14:30.038Z,61.19
2022-07-29T09:15:30.080Z,62.29
2022-07-29T09:16:51.838Z,62.12
2022-07-29T09:17:32.051Z,61.99
2022-07-29T09:18:30.791Z,62.49
2022-07-29T09:19:30.062Z,62.12
2022-07-29T09:20:30.002Z,62.42
2022-07-29T09:21:30.029Z,62.26
2022-07-29T09:22:30.009Z,62.43
2022-07-29T09:23:30.008Z,61.00
2022-07-29T09:24:30.071Z,60.48
2022-07-29T09:25:29.954Z,60.91
2022-07-29T09:26:30.006Z,59.51
2022-07-29T09:27:29.964Z,60.31
2022-07-29T09:28:29.932Z,60.21
2022-07-29T09:29:33.289Z,62.70
2022-07-29T09:30:32.136Z,60.63
2022-07-29T09:31:30.043Z,61.60
2022-07-29T09:32:29.913Z,59.41
2022-07-29T09:33:29.925Z,58.75
2022-07-29T09:34:29.915Z,58.72
2022-07-29T09:35:29.891Z,58.50
2022-07-29T09:36:29.912Z,58.54
2022-07-29T09:37:29.893Z,58.06
2022-07-29T09:38:29.879Z,61.96
2022-07-29T09:39:29.866Z,61.21
2022-07-29T09:40:29.860Z,59.12
2022-07-29T09:41:29.945Z,58.23
2022-07-29T09:42:29.878Z,57.60
2022-07-29T09:43:29.848Z,57.50
2022-07-29T09:44:29.835Z,56.90
2022-07-29T09:45:29.810Z,56.87
2022-07-29T09:46:29.956Z,57.57
2022-07-29T09:47:29.841Z,56.98
2022-07-29T09:48:29.802Z,58.37
2022-07-29T09:49:29.860Z,55.13
2022-07-29T09:50:29.822Z,57.35
2022-07-29T09:51:38.501Z,57.88
2022-07-29T09:52:31.833Z,59.88
2022-07-29T09:53:29.771Z,59.38
2022-07-29T09:54:29.748Z,58.53
2022-07-29T09:55:29.756Z,57.07
2022-07-29T09:56:29.726Z,56.12
2022-07-29T09:57:31.162Z,53.69
2022-07-29T09:58:30.732Z,52.34
2022-07-29T09:59:29.717Z,52.54
2022-07-29T10:00:29.810Z,52.31
2022-07-29T10:01:29.776Z,53.73
2022-07-29T10:02:29.723Z,51.54
2022-07-29T10:03:29.790Z,53.70
2022-07-29T10:04:29.690Z,53.48
2022-07-29T10:05:36.218Z,52.56
2022-07-29T10:06:30.673Z,52.26
2022-07-29T10:07:29.685Z,52.66
2022-07-29T10:08:29.656Z,52.37
2022-07-29T10:09:29.656Z,51.07
2022-07-29T10:10:29.643Z,52.14
2022-07-29T10:11:35.405Z,53.96
2022-07-29T10:12:30.640Z,54.28
2022-07-29T10:13:29.625Z,54.65
2022-07-29T10:14:29.606Z,53.80
2022-07-29T10:15:29.613Z,53.21
2022-07-29T10:16:29.671Z,53.23
2022-07-29T10:17:29.631Z,54.08
2022-07-29T10:18:29.588Z,56.57
2022-07-29T10:19:29.576Z,55.22
2022-07-29T10:20:29.566Z,55.17
2022-07-29T10:21:36.478Z,52.39
2022-07-29T10:22:51.799Z,52.09
2022-07-29T10:23:47.181Z,53.73
2022-07-29T10:24:30.555Z,54.33
2022-07-29T10:25:29.544Z,54.43
2022-07-29T10:26:29.609Z,52.64
2022-07-29T10:27:29.529Z,53.26
2022-07-29T10:28:29.545Z,53.78
2022-07-29T10:29:29.521Z,55.65
2022-07-29T10:30:29.513Z,54.80
2022-07-29T10:31:29.650Z,52.39
2022-07-29T10:32:29.493Z,51.67
2022-07-29T10:33:29.563Z,51.25
2022-07-29T10:34:29.517Z,50.53
2022-07-29T10:35:29.462Z,51.32
2022-07-29T10:36:30.456Z,51.10
2022-07-29T10:37:29.455Z,50.26
2022-07-29T10:38:30.486Z,48.92
2022-07-29T10:39:41.578Z,49.66
2022-07-29T10:40:30.488Z,48.38
2022-07-29T10:41:31.894Z,48.58
2022-07-29T10:42:34.275Z,48.48
2022-07-29T10:43:30.472Z,48.70
2022-07-29T10:44:29.462Z,47.83
2022-07-29T10:45:29.397Z,48.92
2022-07-29T10:46:29.493Z,49.44
2022-07-29T10:47:29.377Z,48.58
2022-07-29T10:48:29.370Z,47.89
2022-07-29T10:50:30.358Z,47.00
2022-07-29T10:51:29.351Z,46.82
2022-07-29T10:52:30.386Z,49.40
2022-07-29T10:53:33.843Z,48.05
2022-07-29T10:54:29.347Z,50.53
2022-07-29T10:55:29.321Z,49.94
2022-07-29T10:56:29.338Z,48.33
2022-07-29T10:57:53.611Z,47.69
2022-07-29T10:58:30.308Z,46.34
2022-07-29T10:59:36.060Z,44.70
2022-07-29T11:00:30.277Z,42.30
2022-07-29T11:01:37.442Z,43.07
2022-07-29T11:02:42.179Z,44.37
2022-07-29T11:03:31.301Z,46.12
2022-07-29T11:04:29.322Z,44.80
2022-07-29T11:05:32.008Z,42.20
2022-07-29T11:06:29.242Z,43.28
2022-07-29T11:07:45.660Z,42.44
2022-07-29T11:08:30.221Z,43.48
2022-07-29T11:09:37.437Z,46.97
2022-07-29T11:10:31.441Z,51.10
2022-07-29T11:11:29.697Z,50.16
2022-07-29T11:12:29.203Z,49.91
2022-07-29T11:13:29.203Z,47.62
2022-07-29T11:14:30.236Z,46.61
2022-07-29T11:15:31.639Z,46.53
2022-07-29T11:16:29.179Z,43.21
2022-07-29T11:17:47.184Z,45.92
2022-07-29T11:18:30.158Z,44.49
2022-07-29T11:19:30.514Z,43.78
2022-07-29T11:20:29.206Z,44.15
2022-07-29T11:21:53.404Z,44.13
2022-07-29T11:22:30.140Z,43.21
2022-07-29T11:23:33.678Z,45.03
2022-07-29T11:24:30.495Z,47.07
2022-07-29T11:25:51.055Z,46.28
2022-07-29T11:26:30.122Z,46.78
2022-07-29T11:27:29.105Z,48.55
2022-07-29T11:28:29.103Z,47.54
2022-07-29T11:29:29.090Z,49.42
2022-07-29T11:30:29.091Z,47.40
2022-07-29T11:31:29.112Z,45.85
2022-07-29T11:32:29.213Z,43.84
2022-07-29T11:33:54.589Z,45.09
2022-07-29T11:34:30.064Z,43.29
2022-07-29T11:35:37.543Z,45.96
2022-07-29T11:36:30.100Z,46.95
2022-07-29T11:37:29.077Z,46.26
2022-07-29T11:38:31.698Z,46.11
2022-07-29T11:40:30.028Z,44.12
2022-07-29T11:41:29.121Z,46.04
2022-07-29T11:42:34.309Z,45.93
2022-07-29T11:43:30.011Z,44.07
2022-07-29T11:44:29.006Z,42.97
2022-07-29T11:45:43.764Z,44.62
2022-07-29T11:46:30.075Z,43.23
2022-07-29T11:47:29.051Z,43.57
2022-07-29T11:48:32.409Z,41.59
2022-07-29T11:50:29.974Z,41.25
2022-07-29T11:51:32.666Z,42.74
2022-07-29T11:52:28.982Z,43.57
2022-07-29T11:53:32.994Z,43.55
2022-07-29T11:54:28.951Z,44.59
2022-07-29T11:55:32.600Z,43.68
2022-07-29T11:56:29.943Z,42.97
2022-07-29T11:57:36.113Z,43.74
2022-07-29T11:58:29.955Z,41.59
2022-07-29T11:59:33.497Z,43.29
2022-07-29T12:00:29.910Z,43.19
2022-07-29T12:01:28.920Z,43.66
2022-07-29T12:02:37.375Z,42.97
2022-07-29T12:03:34.858Z,40.66
2022-07-29T12:04:29.882Z,42.10
2022-07-29T12:05:36.799Z,41.88
2022-07-29T12:06:29.881Z,41.08
2022-07-29T12:07:02.109Z,42.20
2022-07-29T12:07:35.025Z,40.88
2022-07-29T12:08:29.945Z,40.69
2022-07-29T12:09:28.865Z,38.42
2022-07-29T12:10:30.795Z,38.21
2022-07-29T12:11:28.866Z,37.58
2022-07-29T12:12:28.853Z,37.26
2022-07-29T12:13:37.239Z,38.58
2022-07-29T12:14:29.839Z,40.05
2022-07-29T12:15:45.698Z,41.02
2022-07-29T12:16:29.984Z,39.86
2022-07-29T12:17:30.655Z,41.63
2022-07-29T12:18:28.848Z,42.97
2022-07-29T12:19:28.807Z,43.66
2022-07-29T12:20:29.806Z,43.66
2022-07-29T12:21:29.322Z,43.62
2022-07-29T12:22:28.784Z,42.58
2022-07-29T12:23:29.293Z,43.35
2022-07-29T12:24:29.962Z,43.59
2022-07-29T12:25:32.312Z,43.79
2022-07-29T12:26:29.775Z,43.25
2022-07-29T12:27:29.610Z,43.41
2022-07-29T12:28:28.807Z,42.00
2022-07-29T12:29:35.099Z,41.49
2022-07-29T12:30:29.732Z,41.69
2022-07-29T12:31:42.711Z,42.55
2022-07-29T12:32:29.803Z,40.86
2022-07-29T12:33:28.713Z,39.11
2022-07-29T12:34:28.729Z,42.18
2022-07-29T12:35:28.709Z,41.17
2022-07-29T12:36:28.692Z,40.51
2022-07-29T12:37:41.195Z,41.27
2022-07-29T12:38:29.763Z,40.98
2022-07-29T12:39:28.736Z,41.45
2022-07-29T12:40:28.710Z,39.48
2022-07-29T12:41:28.662Z,40.61
2022-07-29T12:42:28.666Z,40.74
2022-07-29T12:43:28.661Z,41.02
2022-07-29T12:44:28.702Z,43.07
2022-07-29T12:45:28.641Z,42.26
2022-07-29T12:46:28.695Z,41.65
2022-07-29T12:47:28.624Z,40.94
2022-07-29T12:48:28.630Z,39.47
2022-07-29T12:49:28.642Z,38.76
2022-07-29T12:50:28.620Z,38.26
2022-07-29T12:51:28.605Z,37.87
2022-07-29T12:52:29.151Z,39.25
2022-07-29T12:53:28.592Z,38.15
2022-07-29T12:54:28.581Z,39.44